Hessville, Indiana
Current Conditions -  °F | °C
As of 3:45 PM on Monday 26 Jan 2015 (Local Time) from KGYY Reporting Station
Light Snow Light Snow  
Wind Chill: 23°   Ceiling: 1200
Heat Index: 28°   Visibility: 10mi
Dew Point: 19°   Wind: 5mph
Humidity: 69%   Direction: 130°SE
Pressure: 29.88"   Gusts: NA
Location:  41.5895°N, 87.4529°W
Report Text: KGYY 262145Z 13004KT 10SM -SN BKN012 BKN050 M02/M07 A2988
Loading
Personal Weather Stations






























Interactive Weather Map New forecast layout! Learn more

10-Day Weather Forecast

Advertisements
Track Severe Weather on mobile